Time;durP1;ratioP1;P1;durP2;ratioP2;P2;SDS_P1;SDS_P2;PMS_P1;PMS_P2;Temp;Humidity;BMP_temperature;BMP_pressure;BME280_temperature;BME280_humidity;BME280_pressure;Samples;Min_cycle;Max_cycle;Signal;HPM_P1;HPM_P2
2022/06/05 00:02:31;;;;;;;6.70;4.85;;;;;;;25.88;100.00;100994.00;5116007;28;20019;-75
2022/06/05 00:05:28;;;;;;;7.82;5.07;;;;;;;25.92;100.00;100984.75;5115341;28;20115;-73
2022/06/05 00:08:36;;;;;;;7.13;5.32;;;;;;;25.95;100.00;100981.84;5099954;28;20024;-73
2022/06/05 00:11:23;;;;;;;8.65;5.00;;;;;;;26.03;100.00;100987.47;5114562;28;20431;-74
2022/06/05 00:14:11;;;;;;;8.60;5.65;;;;;;;25.88;100.00;100977.91;5100832;28;20023;-75
2022/06/05 00:16:57;;;;;;;10.20;5.30;;;;;;;25.92;100.00;100979.38;5114663;28;20027;-74
2022/06/05 00:19:46;;;;;;;5.75;5.15;;;;;;;25.92;100.00;100990.97;5103035;28;20027;-74
2022/06/05 00:22:33;;;;;;;6.75;5.15;;;;;;;25.93;100.00;100984.63;5123374;28;20339;-72
2022/06/05 00:25:19;;;;;;;7.80;5.05;;;;;;;25.55;100.00;100989.34;5121392;28;20054;-72
2022/06/05 00:28:30;;;;;;;6.20;5.20;;;;;;;25.46;100.00;100981.13;5102016;28;20180;-74
2022/06/05 00:31:25;;;;;;;6.20;4.82;;;;;;;25.77;100.00;100991.28;5115670;28;20031;-74
2022/06/05 00:34:13;;;;;;;8.90;4.80;;;;;;;25.40;100.00;100982.44;5116015;28;20460;-74
2022/06/05 00:37:23;;;;;;;7.88;4.80;;;;;;;25.64;100.00;100975.22;5116499;28;20034;-74
2022/06/05 00:40:33;;;;;;;12.75;5.55;;;;;;;25.54;100.00;100970.69;5118053;28;20452;-73
2022/06/05 00:43:23;;;;;;;11.00;5.00;;;;;;;25.81;100.00;100982.03;5116562;28;20569;-76
2022/06/05 00:46:09;;;;;;;8.68;5.20;;;;;;;26.09;100.00;100969.09;5102018;28;20034;-73
2022/06/05 00:48:55;;;;;;;8.25;4.90;;;;;;;25.88;100.00;100970.69;5115693;28;20485;-74
2022/06/05 00:51:41;;;;;;;7.30;5.22;;;;;;;25.79;100.00;100966.03;5116122;28;20097;-74
2022/06/05 00:54:27;;;;;;;13.48;5.25;;;;;;;25.90;100.00;100971.44;5114928;28;20023;-74
2022/06/05 00:57:15;;;;;;;8.95;5.10;;;;;;;25.71;100.00;100972.94;5115356;28;20023;-74
2022/06/05 01:00:12;;;;;;;7.07;5.38;;;;;;;25.84;100.00;100973.75;5100045;28;20375;-75
2022/06/05 01:03:01;;;;;;;5.85;5.20;;;;;;;25.50;100.00;100979.94;5100544;28;20035;-76
2022/06/05 01:05:47;;;;;;;7.30;5.43;;;;;;;25.48;100.00;100976.53;5114708;28;20398;-74
2022/06/05 01:08:32;;;;;;;11.95;5.90;;;;;;;25.37;100.00;100977.31;5114473;28;20030;-73
2022/06/05 01:11:31;;;;;;;7.00;5.50;;;;;;;25.73;100.00;100962.97;5114383;28;20081;-74
2022/06/05 01:14:43;;;;;;;6.75;5.10;;;;;;;25.29;100.00;100973.50;5118795;28;20027;-74
2022/06/05 01:17:57;;;;;;;7.78;5.38;;;;;;;25.80;100.00;100970.41;5118543;28;20368;-74
2022/06/05 01:21:05;;;;;;;7.20;5.55;;;;;;;26.05;100.00;100977.50;5117005;28;20107;-76
2022/06/05 01:23:50;;;;;;;5.93;4.93;;;;;;;25.32;100.00;100975.94;5103301;28;20528;-75
2022/06/05 01:26:48;;;;;;;8.10;5.65;;;;;;;25.51;100.00;100971.78;5118084;28;20039;-74
2022/06/05 01:29:33;;;;;;;6.00;5.28;;;;;;;25.71;100.00;100970.25;5117788;28;20035;-75
2022/06/05 01:32:34;;;;;;;7.95;5.80;;;;;;;25.83;100.00;100974.69;5118020;28;20032;-74
2022/06/05 01:35:44;;;;;;;7.47;5.57;;;;;;;25.55;100.00;100969.72;5117106;28;20027;-75
2022/06/05 01:38:46;;;;;;;6.78;5.38;;;;;;;25.64;100.00;100972.56;5117875;28;20448;-74
2022/06/05 01:41:45;;;;;;;6.97;5.68;;;;;;;25.38;100.00;100980.84;5116629;28;20031;-74
2022/06/05 01:44:36;;;;;;;7.43;6.07;;;;;;;25.23;100.00;100973.91;5117490;28;20043;-73
2022/06/05 01:47:29;;;;;;;5.88;5.28;;;;;;;25.12;100.00;100968.47;5101820;28;20034;-73
2022/06/05 01:50:41;;;;;;;6.50;5.75;;;;;;;25.09;100.00;100971.38;5118102;28;20027;-74
2022/06/05 01:53:36;;;;;;;8.13;5.72;;;;;;;25.65;100.00;100971.59;5116859;28;20015;-75
2022/06/05 01:56:32;;;;;;;7.57;5.65;;;;;;;25.35;100.00;100973.06;5102524;28;20368;-75
2022/06/05 01:59:37;;;;;;;7.28;5.50;;;;;;;25.63;100.00;100984.28;5117266;28;20399;-75
2022/06/05 02:02:32;;;;;;;8.55;5.18;;;;;;;25.82;100.00;100978.34;5117680;28;20031;-72
2022/06/05 02:05:25;;;;;;;7.20;5.45;;;;;;;25.37;100.00;100981.81;5116423;28;20115;-74
2022/06/05 02:08:34;;;;;;;9.27;5.15;;;;;;;25.51;100.00;100984.34;5117550;28;20028;-74
2022/06/05 02:11:23;;;;;;;7.07;5.53;;;;;;;25.36;100.00;100985.47;5116960;28;20368;-75
2022/06/05 02:14:10;;;;;;;6.82;5.20;;;;;;;24.88;100.00;100981.00;5116915;28;20092;-74
2022/06/05 02:16:58;;;;;;;8.85;5.35;;;;;;;24.54;100.00;100979.81;5102344;28;20425;-75
2022/06/05 02:19:44;;;;;;;8.52;5.63;;;;;;;24.70;100.00;100982.31;5116864;28;20035;-74
2022/06/05 02:22:35;;;;;;;6.13;5.47;;;;;;;24.61;100.00;100978.47;5116344;28;20392;-73
2022/06/05 02:25:24;;;;;;;7.43;5.65;;;;;;;24.76;100.00;100974.72;5116223;28;20051;-74
2022/06/05 02:28:16;;;;;;;8.32;5.82;;;;;;;24.66;100.00;100975.44;5100958;28;20034;-73
2022/06/05 02:31:37;;;;;;;10.50;7.95;;;;;;;24.93;100.00;100970.78;5116860;28;20097;-74
2022/06/05 02:34:43;;;;;;;10.65;6.93;;;;;;;25.10;100.00;100973.09;5074608;28;20372;-75
2022/06/05 02:37:57;;;;;;;6.88;5.63;;;;;;;25.09;100.00;100982.97;5080244;28;20032;-74
2022/06/05 02:40:50;;;;;;;6.55;5.70;;;;;;;25.05;100.00;100980.63;5115120;28;20447;-75
2022/06/05 02:47:37;;;;;;;9.52;5.97;;;;;;;24.88;100.00;100967.59;5116655;28;20020;-74
2022/06/05 02:50:43;;;;;;;8.52;5.95;;;;;;;24.76;100.00;100974.72;5075083;28;20035;-74
2022/06/05 02:53:45;;;;;;;9.00;6.38;;;;;;;24.68;100.00;100970.84;5115870;28;20027;-74
2022/06/05 02:56:32;;;;;;;8.32;5.95;;;;;;;24.50;100.00;100974.78;5115572;28;20058;-74
2022/06/05 02:59:18;;;;;;;7.95;6.10;;;;;;;24.63;100.00;100967.66;5115607;28;20032;-74
2022/06/05 03:05:08;;;;;;;7.40;5.70;;;;;;;24.87;100.00;100966.72;5116612;28;20028;-75
2022/06/05 03:07:55;;;;;;;10.98;6.20;;;;;;;25.03;100.00;100964.63;5115049;28;20405;-75
2022/06/05 03:10:44;;;;;;;7.10;6.40;;;;;;;25.18;100.00;100957.28;5115121;28;20031;-74
2022/06/05 03:13:30;;;;;;;11.75;6.18;;;;;;;24.80;100.00;100953.88;5115826;28;20225;-74
2022/06/05 03:16:16;;;;;;;8.82;6.20;;;;;;;24.93;100.00;100955.56;5101400;28;20030;-75
2022/06/05 03:19:02;;;;;;;10.93;6.15;;;;;;;24.99;100.00;100940.88;5116100;28;20027;-74
2022/06/05 03:21:48;;;;;;;9.82;6.38;;;;;;;25.08;100.00;100948.22;5115777;28;20099;-73
2022/06/05 03:24:34;;;;;;;10.52;6.60;;;;;;;24.97;100.00;100940.09;5116222;28;20039;-74
2022/06/05 03:27:20;;;;;;;8.57;7.10;;;;;;;24.95;100.00;100944.75;5116645;28;20027;-77
2022/06/05 03:30:07;;;;;;;8.85;6.35;;;;;;;24.59;100.00;100950.88;5115483;28;20023;-74
2022/06/05 03:32:53;;;;;;;7.30;6.60;;;;;;;24.54;100.00;100950.34;5115732;28;20394;-75
2022/06/05 03:35:41;;;;;;;8.95;6.50;;;;;;;24.65;100.00;100947.81;5114491;28;20115;-75
2022/06/05 03:38:27;;;;;;;10.15;6.53;;;;;;;24.61;100.00;100943.63;5101306;28;20051;-73
2022/06/05 03:41:19;;;;;;;8.63;6.85;;;;;;;24.60;100.00;100941.91;5100206;28;20023;-74
2022/06/05 03:44:04;;;;;;;9.38;6.68;;;;;;;24.67;100.00;100939.66;5115040;28;20046;-72
2022/06/05 03:46:51;;;;;;;12.00;6.78;;;;;;;24.73;100.00;100942.75;5114584;28;20066;-74
2022/06/05 03:49:37;;;;;;;11.25;6.95;;;;;;;24.60;100.00;100951.75;5114870;28;20033;-74
2022/06/05 03:52:23;;;;;;;7.63;6.47;;;;;;;24.86;100.00;100961.47;5115780;28;20050;-74
2022/06/05 03:55:14;;;;;;;12.18;7.10;;;;;;;25.01;100.00;100958.53;5115348;28;20028;-74
2022/06/05 03:57:59;;;;;;;13.13;7.47;;;;;;;25.02;100.00;100962.06;5114072;28;20072;-74
2022/06/05 04:00:45;;;;;;;9.02;6.95;;;;;;;24.89;100.00;100966.63;5114933;28;20028;-74
2022/06/05 04:03:31;;;;;;;9.95;6.85;;;;;;;24.46;100.00;100973.28;5115040;28;20028;-74
2022/06/05 04:06:21;;;;;;;11.68;6.78;;;;;;;24.48;100.00;100964.22;5113496;28;20031;-74
2022/06/05 04:09:09;;;;;;;9.07;6.82;;;;;;;24.10;100.00;100965.19;5115869;28;20435;-75
2022/06/05 04:11:54;;;;;;;8.25;7.03;;;;;;;23.98;100.00;100958.00;5114300;28;20513;-73
2022/06/05 04:14:40;;;;;;;8.50;7.30;;;;;;;24.57;100.00;100951.97;5114795;28;20027;-74
2022/06/05 04:17:26;;;;;;;9.93;7.53;;;;;;;24.25;100.00;100946.22;5114722;28;20031;-74
2022/06/05 04:20:13;;;;;;;14.75;7.88;;;;;;;24.65;100.00;100944.25;5114658;28;20035;-74
2022/06/05 04:22:59;;;;;;;15.40;7.18;;;;;;;24.78;100.00;100939.72;5113690;28;20357;-74
2022/06/05 04:25:45;;;;;;;8.85;6.85;;;;;;;24.91;100.00;100940.56;5113654;28;20040;-74
2022/06/05 04:28:31;;;;;;;9.77;7.03;;;;;;;24.76;100.00;100955.06;5114574;28;20046;-75
2022/06/05 04:31:18;;;;;;;7.50;6.57;;;;;;;25.11;100.00;100958.75;5114626;28;20027;-73
2022/06/05 04:34:09;;;;;;;10.40;6.80;;;;;;;24.52;100.00;100962.16;5115074;28;20019;-73
2022/06/05 04:36:55;;;;;;;9.73;6.85;;;;;;;25.39;100.00;100959.28;5109007;28;20326;-75
2022/06/05 04:39:41;;;;;;;26.50;7.43;;;;;;;25.72;100.00;100950.50;5107885;28;20359;-75
2022/06/05 04:42:26;;;;;;;10.20;7.50;;;;;;;24.95;100.00;100958.97;5114503;28;20421;-74
2022/06/05 04:45:15;;;;;;;11.38;7.40;;;;;;;25.57;100.00;100951.66;5100251;28;20123;-75
2022/06/05 04:48:01;;;;;;;12.68;7.80;;;;;;;25.98;100.00;100950.25;5117642;28;20055;-75
2022/06/05 04:50:46;;;;;;;12.20;7.45;;;;;;;26.32;100.00;100952.00;5117271;28;20031;-75
2022/06/05 04:53:33;;;;;;;13.13;7.85;;;;;;;26.32;100.00;100953.84;5118691;28;20035;-74
2022/06/05 04:56:22;;;;;;;8.27;7.38;;;;;;;25.61;100.00;100950.47;5118178;28;20023;-75
2022/06/05 04:59:09;;;;;;;8.95;7.03;;;;;;;25.97;100.00;100948.56;5104442;28;20019;-74
2022/06/05 05:01:55;;;;;;;9.50;7.25;;;;;;;24.99;100.00;100947.06;5118489;28;20351;-75
2022/06/05 05:04:41;;;;;;;16.83;7.03;;;;;;;25.82;100.00;100957.75;5116921;28;20038;-73
2022/06/05 05:07:27;;;;;;;15.85;7.43;;;;;;;26.44;100.00;100951.03;5118521;28;20384;-74
2022/06/05 05:10:14;;;;;;;10.45;7.07;;;;;;;26.25;100.00;100942.75;5118702;28;20027;-74
2022/06/05 05:13:00;;;;;;;13.13;7.80;;;;;;;26.08;100.00;100942.34;5118563;28;20085;-74
2022/06/05 05:15:50;;;;;;;14.38;7.75;;;;;;;26.11;100.00;100934.03;5117195;28;20112;-74
2022/06/05 05:18:36;;;;;;;17.05;7.82;;;;;;;26.39;100.00;100937.13;5118121;28;20517;-74
2022/06/05 05:21:24;;;;;;;12.70;7.75;;;;;;;26.26;100.00;100938.22;5117564;28;20028;-74
2022/06/05 05:24:10;;;;;;;9.93;7.75;;;;;;;25.92;100.00;100952.53;5104525;28;20465;-74
2022/06/05 05:26:55;;;;;;;12.18;7.60;;;;;;;26.36;100.00;100947.28;5116564;28;20051;-74
2022/06/05 05:29:41;;;;;;;11.25;7.40;;;;;;;26.07;100.00;100948.66;5116994;28;20035;-74
2022/06/05 05:32:28;;;;;;;15.18;8.23;;;;;;;26.39;100.00;100953.25;5117203;28;20030;-74
2022/06/05 05:35:17;;;;;;;10.23;7.75;;;;;;;26.51;100.00;100949.59;5118072;28;20023;-75
2022/06/05 05:38:03;;;;;;;12.40;7.70;;;;;;;26.53;100.00;100954.84;5117744;28;20031;-75
2022/06/05 05:43:53;;;;;;;8.68;7.70;;;;;;;26.71;100.00;100956.94;5118542;28;20039;-74
2022/06/05 05:46:40;;;;;;;9.23;7.60;;;;;;;26.47;100.00;100953.50;5117070;28;20035;-75
2022/06/05 05:49:26;;;;;;;9.88;8.32;;;;;;;26.25;100.00;100961.53;5117626;28;20414;-74
2022/06/05 05:52:12;;;;;;;12.77;8.23;;;;;;;26.64;100.00;100961.09;5103134;28;20042;-73
2022/06/05 05:54:59;;;;;;;8.73;7.78;;;;;;;26.44;100.00;100953.72;5103591;28;20107;-74
2022/06/05 05:57:46;;;;;;;11.90;8.18;;;;;;;26.49;100.00;100958.75;5117749;28;20168;-74
2022/06/05 06:00:33;;;;;;;10.15;8.02;;;;;;;26.96;100.00;100962.03;5117366;28;20027;-73
2022/06/05 06:03:19;;;;;;;9.73;8.05;;;;;;;26.49;100.00;100969.50;5118012;28;20031;-75
2022/06/05 06:06:05;;;;;;;13.07;8.32;;;;;;;26.26;100.00;100973.13;5116786;28;20016;-74
2022/06/05 06:08:54;;;;;;;13.07;8.38;;;;;;;27.01;100.00;100972.44;5117469;28;20100;-74
2022/06/05 06:11:40;;;;;;;9.82;8.07;;;;;;;27.75;100.00;100969.78;5117509;28;20055;-74
2022/06/05 06:14:25;;;;;;;9.02;8.13;;;;;;;27.90;100.00;100973.91;5117725;28;20023;-74
2022/06/05 06:17:11;;;;;;;9.43;7.90;;;;;;;27.79;100.00;100973.03;5117628;28;20081;-74
2022/06/05 06:19:57;;;;;;;8.80;7.90;;;;;;;26.86;100.00;100962.91;5117428;28;20450;-73
2022/06/05 06:22:43;;;;;;;11.23;7.97;;;;;;;27.50;100.00;100964.75;5101862;28;20070;-76
2022/06/05 06:25:29;;;;;;;10.10;8.00;;;;;;;28.04;100.00;100957.41;5116486;28;20337;-74
2022/06/05 06:28:15;;;;;;;12.77;8.32;;;;;;;27.60;100.00;100960.28;5116735;28;20032;-75
2022/06/05 06:31:09;;;;;;;9.88;8.10;;;;;;;28.09;100.00;100960.56;5117591;28;20058;-74
2022/06/05 06:33:55;;;;;;;12.35;8.23;;;;;;;28.75;100.00;100965.47;5116170;28;20019;-75
2022/06/05 06:36:41;;;;;;;11.25;8.43;;;;;;;29.04;100.00;100955.66;5116822;28;20349;-74
2022/06/05 06:39:28;;;;;;;12.73;9.00;;;;;;;28.70;100.00;100958.78;5116746;28;20027;-75
2022/06/05 06:42:14;;;;;;;14.65;10.05;;;;;;;28.35;100.00;100960.97;5101849;28;20120;-74
2022/06/05 06:45:00;;;;;;;16.50;9.73;;;;;;;28.41;100.00;100960.47;5102495;28;20088;-75
2022/06/05 06:47:46;;;;;;;20.05;9.88;;;;;;;28.62;100.00;100958.59;5116679;28;20024;-75
2022/06/05 06:50:31;;;;;;;12.68;9.85;;;;;;;28.45;100.00;100960.06;5115458;28;20106;-73
2022/06/05 06:53:17;;;;;;;10.70;9.40;;;;;;;28.66;100.00;100955.50;5116062;28;20024;-74
2022/06/05 06:56:12;;;;;;;12.05;8.75;;;;;;;27.86;100.00;100950.91;5116078;28;20107;-75
2022/06/05 06:58:59;;;;;;;12.05;9.57;;;;;;;28.45;100.00;100949.28;5116591;28;20379;-73
2022/06/05 07:01:45;;;;;;;11.40;9.38;;;;;;;28.34;100.00;100952.06;5116107;28;20092;-75
2022/06/05 07:04:31;;;;;;;15.00;9.13;;;;;;;28.51;100.00;100947.91;5115897;28;20075;-75
2022/06/05 07:07:17;;;;;;;14.63;9.15;;;;;;;28.79;100.00;100952.56;5115822;28;20088;-74
2022/06/05 07:10:05;;;;;;;14.70;9.57;;;;;;;29.35;100.00;100953.72;5100797;28;20513;-75
2022/06/05 07:12:50;;;;;;;11.27;9.38;;;;;;;29.42;100.00;100947.63;5115987;28;20114;-76
2022/06/05 07:15:36;;;;;;;10.48;8.45;;;;;;;29.83;100.00;100960.00;5101351;28;20015;-75
2022/06/05 07:18:22;;;;;;;11.40;9.68;;;;;;;29.03;100.00;100953.94;5115716;28;20019;-75
2022/06/05 07:21:20;;;;;;;10.65;9.35;;;;;;;29.51;100.00;100967.50;5115813;28;20032;-74
2022/06/05 07:24:06;;;;;;;12.90;9.43;;;;;;;29.51;100.00;100957.56;5113751;28;20034;-74
2022/06/05 07:26:54;;;;;;;10.45;9.10;;;;;;;29.80;100.00;100954.88;5115434;28;20036;-75
2022/06/05 07:29:39;;;;;;;10.52;9.40;;;;;;;29.18;100.00;100957.09;5114616;28;20089;-74
2022/06/05 07:32:25;;;;;;;11.27;8.93;;;;;;;29.71;100.00;100959.31;5100488;28;20046;-75
2022/06/05 07:35:12;;;;;;;14.23;9.52;;;;;;;29.94;100.00;100960.69;5115657;28;20031;-75
2022/06/05 07:37:57;;;;;;;13.07;9.18;;;;;;;30.05;100.00;100957.84;5115810;28;20020;-75
2022/06/05 07:40:43;;;;;;;12.20;9.25;;;;;;;30.19;100.00;100961.97;5100625;28;20035;-74
2022/06/05 07:43:32;;;;;;;10.75;8.55;;;;;;;29.53;100.00;100971.78;5114714;28;20027;-74
2022/06/05 07:46:19;;;;;;;10.90;8.88;;;;;;;29.75;100.00;100960.72;5099466;28;20099;-75
2022/06/05 07:49:08;;;;;;;11.57;8.38;;;;;;;30.81;100.00;100952.22;5115807;28;20096;-75
2022/06/05 07:55:01;;;;;;;54.92;12.13;;;;;;;30.23;100.00;100950.72;5115596;28;20019;-75
2022/06/05 07:57:47;;;;;;;16.67;8.98;;;;;;;30.52;100.00;100959.59;5114687;28;20439;-75
2022/06/05 08:00:33;;;;;;;12.05;8.98;;;;;;;30.51;100.00;100968.72;5115373;28;20028;-74
2022/06/05 08:03:18;;;;;;;14.40;9.85;;;;;;;31.09;100.00;100959.34;5115761;28;20448;-74
2022/06/05 08:06:04;;;;;;;10.20;8.23;;;;;;;31.77;100.00;100963.31;5113327;28;20039;-74
2022/06/05 08:08:53;;;;;;;14.63;8.18;;;;;;;31.48;100.00;100957.25;5115150;28;20032;-74
2022/06/05 08:11:42;;;;;;;10.10;8.05;;;;;;;31.48;100.00;100956.38;5114015;28;20028;-75
2022/06/05 08:14:32;;;;;;;9.25;8.35;;;;;;;31.17;100.00;100943.19;5115161;28;20035;-76
2022/06/05 08:17:28;;;;;;;11.30;7.88;;;;;;;32.60;96.94;100951.88;5114302;28;20019;-76
2022/06/05 08:20:14;;;;;;;9.30;8.27;;;;;;;32.57;92.76;100942.19;5113737;28;20069;-75
2022/06/05 08:23:00;;;;;;;10.90;8.40;;;;;;;32.13;99.32;100951.38;5099629;28;20068;-75
2022/06/05 08:25:45;;;;;;;13.95;8.52;;;;;;;32.79;97.40;100949.75;5114220;28;20059;-74
2022/06/05 08:28:31;;;;;;;11.30;7.80;;;;;;;33.30;91.93;100952.34;5114256;28;20030;-75
2022/06/05 08:31:17;;;;;;;10.93;7.65;;;;;;;33.75;87.63;100949.22;5101396;28;20027;-74
2022/06/05 08:34:04;;;;;;;9.77;8.60;;;;;;;33.50;88.13;100947.47;5114370;28;20024;-74
2022/06/05 08:41:26;;;;;;;9.38;7.90;;;;;;;33.42;87.62;100942.88;5099831;28;20051;-74
2022/06/05 08:43:23;;;;;;;9.52;7.32;;;;;;;33.85;85.74;100939.91;5115360;28;20020;-74
2022/06/05 08:46:20;;;;;;;9.38;7.78;;;;;;;33.91;84.52;100933.75;5114364;28;20028;-75
2022/06/05 08:49:17;;;;;;;14.80;7.57;;;;;;;33.97;83.84;100924.06;5114121;28;20406;-74
2022/06/05 08:52:30;;;;;;;9.57;7.78;;;;;;;33.56;86.56;100931.38;5101304;28;20445;-75
2022/06/05 08:55:21;;;;;;;9.38;8.48;;;;;;;33.13;90.39;100919.88;5114208;28;20160;-77
2022/06/05 08:58:26;;;;;;;16.33;7.93;;;;;;;32.72;93.12;100929.72;5114093;28;20345;-75
2022/06/05 09:01:28;;;;;;;11.85;7.50;;;;;;;32.94;82.66;100921.00;5114659;28;20458;-77
2022/06/05 09:04:39;;;;;;;8.55;7.38;;;;;;;33.46;81.26;100914.34;5114322;28;20028;-74
2022/06/05 09:07:32;;;;;;;8.43;6.97;;;;;;;33.62;79.11;100914.38;5099852;28;20034;-75
2022/06/05 09:10:32;;;;;;;9.93;7.60;;;;;;;33.91;79.38;100917.44;5113906;28;20059;-72
2022/06/05 09:13:36;;;;;;;13.55;6.97;;;;;;;33.67;78.56;100909.25;5114156;28;20127;-73
2022/06/05 09:16:35;;;;;;;10.60;7.20;;;;;;;33.75;76.06;100908.44;5114038;28;20109;-73
2022/06/05 09:19:26;;;;;;;10.32;6.82;;;;;;;34.42;73.64;100903.44;5113836;28;20038;-73
2022/06/05 09:22:26;;;;;;;8.45;6.70;;;;;;;34.89;69.62;100906.16;5114755;28;20031;-74
2022/06/05 09:25:32;;;;;;;10.90;7.90;;;;;;;34.24;74.03;100897.31;5099539;28;20357;-74
2022/06/05 09:28:26;;;;;;;10.88;7.75;;;;;;;33.52;78.64;100896.53;5114158;28;20035;-73
2022/06/05 09:31:31;;;;;;;8.57;7.70;;;;;;;32.73;80.71;100882.56;5114343;28;20111;-73
2022/06/05 09:34:23;;;;;;;12.00;8.07;;;;;;;32.77;83.17;100878.50;5117211;28;20027;-74
2022/06/05 09:37:21;;;;;;;11.20;8.32;;;;;;;33.28;80.38;100885.63;5117067;28;20019;-74
2022/06/05 09:40:23;;;;;;;12.35;8.45;;;;;;;33.91;76.49;100875.81;5117869;28;20097;-74
2022/06/05 09:43:22;;;;;;;8.98;8.07;;;;;;;33.28;78.79;100877.47;5117607;28;20020;-75
2022/06/05 09:46:36;;;;;;;9.80;8.35;;;;;;;33.87;76.03;100880.72;5117392;28;20039;-76
2022/06/05 09:49:45;;;;;;;9.82;7.82;;;;;;;33.88;76.25;100870.72;5102343;28;20042;-76
2022/06/05 09:52:31;;;;;;;10.35;8.32;;;;;;;33.41;76.36;100873.25;5115946;28;20448;-74
2022/06/05 09:55:33;;;;;;;12.50;8.20;;;;;;;32.96;80.43;100861.13;5116066;28;20019;-76
2022/06/05 09:58:37;;;;;;;11.25;9.07;;;;;;;33.12;80.31;100863.84;5117214;28;20451;-75
2022/06/05 10:01:33;;;;;;;15.15;8.85;;;;;;;32.54;84.32;100855.69;5117623;28;20031;-74
2022/06/05 10:04:21;;;;;;;16.27;8.77;;;;;;;32.41;86.59;100860.72;5101361;28;20031;-75
2022/06/05 10:07:24;;;;;;;14.98;8.80;;;;;;;32.38;85.04;100858.34;5117484;28;20062;-75
2022/06/05 10:10:21;;;;;;;11.45;9.27;;;;;;;33.12;80.96;100858.44;5117944;28;20059;-75
2022/06/05 10:13:43;;;;;;;16.92;9.20;;;;;;;33.62;77.28;100862.72;5117242;28;20023;-74
2022/06/05 10:16:36;;;;;;;14.57;12.98;;;;;;;33.74;74.94;100853.19;5099008;28;20450;-75
2022/06/05 10:19:41;;;;;;;9.98;8.50;;;;;;;34.02;74.00;100845.53;5116739;28;20027;-74
2022/06/05 10:22:33;;;;;;;13.30;8.52;;;;;;;33.54;76.39;100851.00;5116845;28;20092;-74
2022/06/05 10:25:59;;;;;;;11.77;9.02;;;;;;;33.89;75.94;100837.91;5116502;28;20043;-76
2022/06/05 10:28:46;;;;;;;11.85;8.85;;;;;;;33.52;77.14;100836.75;5116721;28;20081;-75
2022/06/05 10:31:34;;;;;;;13.15;8.60;;;;;;;33.22;80.15;100835.50;5116612;28;20028;-74
2022/06/05 10:34:37;;;;;;;10.48;9.00;;;;;;;32.95;82.79;100838.53;5116278;28;20468;-75
2022/06/05 10:37:29;;;;;;;9.57;8.57;;;;;;;33.47;82.12;100825.53;5101373;28;20440;-74
2022/06/05 10:41:04;;;;;;;13.25;9.18;;;;;;;33.31;82.20;100825.50;5116252;28;20019;-76
2022/06/05 10:44:11;;;;;;;16.63;9.90;;;;;;;33.01;84.50;100823.44;5110111;28;20039;-75
2022/06/05 10:47:07;;;;;;;11.40;9.50;;;;;;;32.76;86.83;100825.25;5115982;28;20032;-74
2022/06/05 10:50:07;;;;;;;15.77;9.38;;;;;;;32.77;79.69;100810.66;5101486;28;20039;-75
2022/06/05 10:53:31;;;;;;;11.85;8.90;;;;;;;33.16;76.56;100809.03;5115727;28;20062;-74
2022/06/05 10:56:33;;;;;;;14.48;8.13;;;;;;;33.87;73.11;100809.22;5115906;28;20110;-75
2022/06/05 10:59:28;;;;;;;12.05;8.52;;;;;;;34.36;69.92;100803.44;5115855;28;20043;-75
2022/06/05 11:02:41;;;;;;;9.70;8.50;;;;;;;34.35;69.70;100804.47;5116075;28;20046;-76
2022/06/05 11:05:36;;;;;;;10.55;8.95;;;;;;;34.24;69.58;100795.81;5115670;28;20452;-74
2022/06/05 11:08:34;;;;;;;11.68;9.15;;;;;;;34.22;72.16;100797.84;5101140;28;20059;-74
2022/06/05 11:14:51;;;;;;;11.15;9.13;;;;;;;34.72;69.78;100801.88;5116106;28;20024;-75
2022/06/05 11:17:49;;;;;;;10.48;9.38;;;;;;;33.78;72.27;100785.72;5115395;28;20031;-74
2022/06/05 11:20:36;;;;;;;10.95;9.48;;;;;;;33.33;74.42;100790.91;5100621;28;20027;-74
2022/06/05 11:23:33;;;;;;;11.98;9.40;;;;;;;33.70;74.60;100786.59;5100267;28;20051;-73
2022/06/05 11:26:34;;;;;;;15.50;8.95;;;;;;;33.97;75.51;100790.81;5115158;28;20036;-76
2022/06/05 11:29:19;;;;;;;12.93;9.10;;;;;;;33.72;76.37;100789.16;5100258;28;20126;-72
2022/06/05 11:32:20;;;;;;;13.85;8.80;;;;;;;33.65;74.91;100783.56;5101246;28;20016;-72
2022/06/05 11:35:31;;;;;;;16.63;8.77;;;;;;;33.71;72.13;100782.84;5115041;28;20030;-72
2022/06/05 11:38:38;;;;;;;11.40;9.13;;;;;;;33.31;75.61;100782.03;5100558;28;20065;-72
2022/06/05 11:41:31;;;;;;;10.82;9.20;;;;;;;33.27;77.87;100776.09;5100606;28;20088;-71
2022/06/05 11:44:42;;;;;;;12.55;8.80;;;;;;;33.52;74.91;100776.97;5114955;28;20050;-69
2022/06/05 11:48:19;;;;;;;11.40;8.75;;;;;;;33.64;73.84;100764.72;5114786;28;20439;-70
2022/06/05 11:51:21;;;;;;;9.60;8.60;;;;;;;34.04;72.84;100762.72;5035313;28;20030;-70
2022/06/05 11:54:17;;;;;;;14.18;8.60;;;;;;;33.94;71.79;100761.25;5110353;28;20523;-70
2022/06/05 11:57:09;;;;;;;12.27;8.63;;;;;;;34.28;71.58;100765.34;5115524;28;20028;-70
2022/06/05 12:00:18;;;;;;;13.57;8.93;;;;;;;34.47;68.81;100764.13;5114513;28;20045;-70
2022/06/05 12:03:16;;;;;;;13.75;8.98;;;;;;;33.58;72.24;100755.38;5115384;28;20032;-70
2022/06/05 12:06:21;;;;;;;13.52;8.93;;;;;;;33.42;74.30;100751.81;5098970;28;20044;-71
2022/06/05 12:09:16;;;;;;;12.30;8.90;;;;;;;33.63;74.63;100744.81;5114806;28;20436;-71
2022/06/05 12:12:26;;;;;;;10.40;9.30;;;;;;;33.62;73.14;100745.84;5115003;28;20030;-70
2022/06/05 12:15:25;;;;;;;10.98;8.70;;;;;;;33.83;73.00;100742.59;5114319;28;20103;-70
2022/06/05 12:18:19;;;;;;;14.18;8.43;;;;;;;33.29;70.81;100729.75;5100131;28;20027;-72
2022/06/05 12:21:14;;;;;;;9.55;8.23;;;;;;;33.16;67.96;100734.84;5099239;28;20028;-72
2022/06/05 12:24:11;;;;;;;11.82;8.90;;;;;;;33.05;67.03;100741.47;5099228;28;20126;-73
2022/06/05 12:27:07;;;;;;;11.25;7.82;;;;;;;33.26;66.94;100735.53;5114805;28;20039;-72
2022/06/05 12:29:58;;;;;;;8.77;7.50;;;;;;;33.40;64.33;100733.00;5099954;28;20062;-71
2022/06/05 12:32:56;;;;;;;9.38;7.40;;;;;;;34.18;62.90;100723.06;5114567;28;20028;-74
2022/06/05 12:35:46;;;;;;;11.30;7.75;;;;;;;34.57;62.12;100729.31;5113674;28;20364;-73
2022/06/05 12:38:45;;;;;;;13.93;8.38;;;;;;;34.34;63.26;100726.59;5115201;28;20517;-72
2022/06/05 12:41:49;;;;;;;9.02;7.50;;;;;;;34.39;61.74;100723.34;5113284;28;20046;-75
2022/06/05 12:44:43;;;;;;;8.95;7.70;;;;;;;34.34;60.63;100726.59;5099425;28;20466;-73
2022/06/05 12:47:55;;;;;;;8.32;7.03;;;;;;;34.22;61.45;100725.25;5114573;28;20035;-73
2022/06/05 12:50:41;;;;;;;10.93;7.50;;;;;;;34.73;61.07;100729.22;5114032;28;20452;-72
2022/06/05 12:53:37;;;;;;;10.98;7.57;;;;;;;34.56;59.17;100725.75;5114080;28;20031;-72
2022/06/05 12:56:43;;;;;;;9.48;7.07;;;;;;;34.20;60.44;100724.56;5113917;28;20108;-72
2022/06/05 12:59:50;;;;;;;14.23;8.98;;;;;;;34.04;61.33;100712.94;5091509;28;20418;-72
2022/06/05 13:02:47;;;;;;;14.20;8.05;;;;;;;33.95;60.51;100711.28;5115047;28;20030;-72
2022/06/05 13:05:43;;;;;;;12.45;7.60;;;;;;;34.34;57.31;100714.84;5112710;28;20092;-72
2022/06/05 13:09:15;;;;;;;10.57;6.85;;;;;;;34.14;54.80;100699.97;5116659;28;20402;-72
2022/06/05 13:12:07;;;;;;;8.73;7.47;;;;;;;34.57;55.96;100700.25;5079052;28;20024;-73
2022/06/05 13:15:16;;;;;;;8.40;6.90;;;;;;;34.54;56.55;100710.63;5116719;28;20440;-71
2022/06/05 13:18:40;;;;;;;9.68;7.40;;;;;;;34.30;57.96;100708.88;5102750;28;20574;-72
2022/06/05 13:21:45;;;;;;;11.88;8.48;;;;;;;33.85;59.02;100703.34;5095508;28;20054;-72
2022/06/05 13:24:57;;;;;;;11.27;10.02;;;;;;;34.19;59.99;100692.13;5095279;28;20126;-72
2022/06/05 13:27:57;;;;;;;9.65;7.05;;;;;;;34.14;59.25;100697.22;5117801;28;20035;-72
2022/06/05 13:31:01;;;;;;;15.45;7.70;;;;;;;34.68;57.79;100694.34;5103733;28;20032;-72
2022/06/05 13:34:04;;;;;;;10.50;7.18;;;;;;;34.41;56.40;100696.78;5117971;28;20035;-72
2022/06/05 13:37:16;;;;;;;12.57;6.65;;;;;;;34.33;57.79;100689.53;5118200;28;20032;-72